Saturday, October 20, 2018, 9:36 PM EDT
Back to Local

KDDH, Bennington Morse State Airport

Location: Bennington, VT, United States Lat: 42.883
Local Time: 9:36 PM EDT ( 1:36 GMT) Lon: -73.25
Time Zone: US/Eastern Elev: 826 ft

Show me the last for .
Show Decoded

2018-10-20 20:54 METAR KDDH 210054Z AUTO 22003KT 10SM FEW048 FEW065 OVC085 09/03 A2959 RMK AO2
                 RAB21E41 SLP023 P0000 T00940028 =
2018-10-20 19:54 METAR KDDH 202354Z AUTO 22005KT 10SM BKN060 BKN070 09/02 A2960 RMK AO2 SLP023
                 T00940022 10150 20067 53008 =
2018-10-20 18:54 METAR KDDH 202254Z AUTO 21006KT 10SM CLR 07/02 A2958 RMK AO2 SLP019 T00670022 =
2018-10-20 17:54 METAR KDDH 202154Z AUTO 26005KT 10SM CLR 11/01 A2956 RMK AO2 SLP011 T01110006 =
2018-10-20 16:54 METAR KDDH 202054Z AUTO 30007KT 10SM FEW110 13/01 A2957 RMK AO2 SLP013 T01330006
                 56009 =
2018-10-20 15:54 METAR KDDH 201954Z AUTO 27006KT 10SM FEW050 BKN100 14/03 A2957 RMK AO2 SLP013
                 T01390028 =
2018-10-20 14:54 METAR KDDH 201854Z AUTO 24009G17KT 10SM SCT048 BKN060 BKN080 14/03 A2958 RMK AO2
                 SLP015 T01390033 =
2018-10-20 13:54 METAR KDDH 201754Z AUTO 23007KT 10SM FEW038 SCT049 BKN095 13/05 A2960 RMK AO2
                 SLP023 60000 T01330050 10144 20106 58013 =
2018-10-20 12:54 METAR KDDH 201654Z AUTO VRB05KT 10SM SCT055 BKN100 12/06 A2963 RMK AO2 RAB20E35
                 SLP033 P0000 T01170061 =
2018-10-20 11:54 METAR KDDH 201554Z AUTO 26006G15KT 10SM SCT028 OVC040 12/06 A2964 RMK AO2
                 RAB38E52 SLP037 P0000 T01170061 =
2018-10-20 11:43 METAR KDDH 201543Z AUTO VRB05KT 10SM -RA BKN028 OVC035 12/07 A2963 RMK AO2 RAB38
                 P0000 T01170067 =
2018-10-20 10:54 METAR KDDH 201454Z AUTO 21004KT 10SM OVC034 12/07 A2964 RMK AO2 SLP036 T01170067
                 50003 =
2018-10-20 09:54 METAR KDDH 201354Z AUTO 22006KT 10SM OVC034 12/07 A2964 RMK AO2 SLP038 T01170067
                 =
2018-10-20 08:54 METAR KDDH 201254Z AUTO 22006KT 10SM OVC037 11/07 A2964 RMK AO2 SLP037 T01110067
                 =
2018-10-20 07:54 METAR KDDH 201154Z AUTO VRB06KT 10SM FEW035 BKN043 OVC050 11/07 A2963 RMK AO2
                 SLP034 60000 T01110067 10117 20100 50001 =
2018-10-20 07:10 METAR KDDH 201110Z AUTO 19008KT 10SM SCT022 BKN030 OVC044 10/07 A2963 RMK AO2
                 T01000067 =
2018-10-20 07:03 METAR KDDH 201103Z AUTO 21006KT 10SM FEW019 BKN024 OVC043 11/07 A2963 RMK AO2
                 T01060067 =
2018-10-20 06:54 METAR KDDH 201054Z AUTO 22009KT 10SM SCT021 OVC031 11/07 A2964 RMK AO2 SLP036
                 T01110067 =
2018-10-20 05:54 METAR KDDH 200954Z AUTO 23008KT 10SM OVC039 12/05 A2962 RMK AO2 SLP031 T01170050
                 =
2018-10-20 04:54 METAR KDDH 200854Z AUTO 19005KT 10SM OVC048 12/04 A2963 RMK AO2 RAE02 SLP031
                 P0000 60000 T01170044 58034 =
2018-10-20 03:54 METAR KDDH 200754Z AUTO 19009KT 10SM -RA OVC065 11/05 A2966 RMK AO2 RAB04E13B53
                 SLP043 P0000 T01110050 =
2018-10-20 02:54 METAR KDDH 200654Z AUTO 18011KT 10SM BKN070 OVC085 11/05 A2971 RMK AO2 RAE06
                 SLP058 P0000 T01110050 =
2018-10-20 01:54 METAR KDDH 200554Z AUTO 19005KT 10SM -RA OVC070 11/04 A2973 RMK AO2 RAB36 SLP067
                 P0000 60000 T01060044 10122 20106 56035 =
2018-10-20 00:54 METAR KDDH 200454Z AUTO 10SM FEW065 SCT095 BKN120 12/03 A2976 RMK AO2 SLP078
                 T01170028 401671017 =
2018-10-19 23:54 METAR KDDH 200354Z AUTO 20006G17KT 10SM CLR 11/01 A2980 RMK AO2 SLP092 T01110011
                 =
2018-10-19 22:54 METAR KDDH 200254Z AUTO 20006KT 10SM CLR 12/00 A2984 RMK AO2 SLP105 T01170000
                 55020 =
2018-10-19 21:54 METAR KDDH 200154Z AUTO VRB03KT 10SM CLR 12/01 A2983 RMK AO2 SLP103 T01170011 =

Support USWX by starting your Amazon purchase here.